AirNav   Air Wisconsin pilot careers
 
 1632 users online  

91C Sauk-Prairie Airport
Prairie du Sac, Wisconsin, USA

GOING TO PRAIRIE DU SAC?


FAA INFORMATION EFFECTIVE 01 FEBRUARY 2018

Location

FAA Identifier: 91C
Lat/Long: 43-17-52.3000N / 089-45-20.9000W
43-17.871667N / 089-45.348333W
43.2978611 / -89.7558056
(estimated)
Elevation: 832 ft. / 253.6 m (surveyed)
Variation: 00E (1985)
From city: 2 miles W of PRAIRIE DU SAC, WI
Time zone: UTC -6 (UTC -5 during Daylight Saving Time)
Zip code: 53578

Airport Operations

Airport use: Open to the public
Activation date: 01/1963
Control tower: no
ARTCC: CHICAGO CENTER
FSS: GREEN BAY FLIGHT SERVICE STATION
NOTAMs facility: GRB (NOTAM-D service available)
Attendance: 
Wind indicator: lighted
Segmented circle: no
Lights: ACTVT MIRL RY 18/36, REIL RYS 18 & 36, & PAPI RYS 18 & 36 - CTAF.
Beacon: white-green (lighted land airport)
Operates sunset to sunrise.

Airport Communications

CTAF: 122.9
MADISON APPROACH: 135.45
MADISON DEPARTURE: 135.45
WX AWOS-3 at DLL (13 nm N): 118.325 (608-356-1071)
WX AWOS-3 at C29 (15 nm SE): 118.675 (608-833-1686)
WX AWOS-3PT at C35 (17 nm NW): 118.95 (608-768-0023)
WX ASOS at LNR (19 nm W): 119.425 (608-583-2576)
  • APCH/DEP SVCS PRVDD BY CHICAGO ARTCC ON FREQS 133.3/380.35 (LONE ROCK RCAG) WHEN MADISON TWR CLSD.

Nearby radio navigation aids

VOR radial/distance  VOR name  Freq  Var
DLLr176/15.2DELLS VORTAC117.0003E
LNRr089/16.5LONE ROCK VOR/DME112.8000E
MSNr294/20.4MADISON VORTAC108.6003E

 
NDB name  Hdg/Dist  Freq  Var  ID
MINERAL POINT039/32.136501EMRJ -- .-. .---

Airport Services

Fuel available: UL94
Parking: tiedowns
Airframe service: MAJOR
Powerplant service: MAJOR
Bottled oxygen: NONE
Bulk oxygen: NONE

Runway Information

Runway 18/36

Dimensions: 2936 x 60 ft. / 895 x 18 m
Surface: asphalt, in good condition
Runway edge lights: medium intensity
RUNWAY 18  RUNWAY 36
Latitude: 43-18.113167N43-17.630495N
Longitude: 089-45.365038W089-45.331887W
Elevation: 831.4 ft.820.1 ft.
Traffic pattern: leftleft
Runway heading: 177357
Markings: nonprecision, in good conditionnonprecision, in good condition
Visual slope indicator: 2-light PAPI on left (3.00 degrees glide path)2-light PAPI on left (3.00 degrees glide path)
Runway end identifier lights: yesyes
Touchdown point: yes, no lightsyes, no lights
Obstructions: 47 ft. pole, 2060 ft. from runway, 75 ft. right of centerline, 40:1 slope to clear20 ft. tree, 800 ft. from runway, 60 ft. left of centerline, 30:1 slope to clear
RY 36 + 10' TREES 30' FM THR 200' L.

Airport Ownership and Management from official FAA records

Ownership: Privately-owned
Owner: CFM INVESTMENTS
ONE QUENCH DRIVE
PRAIRIE DU SAC, WI 53578
Phone 608-643-8530
Manager: SAUK PRAIRIE AIRPORT INC.
P O BOX 7
PRAIRIE DU SAC, WI 53754
Phone 608-577-3754

Airport Operational Statistics

Aircraft based on the field: 33
Single engine airplanes: 28
Jet airplanes: 1
Ultralights: 4
    
Aircraft operations: avg 23/day *
66% local general aviation
30% transient general aviation
4% military
<1% air taxi
* for 12-month period ending 03 November 2017

Additional Remarks

ULTRALIGHT ACTVTY ON & INVOF ARPT.
MAINT VEHICLE TFC ON AND INVOF ARPT.
W RAMP AND TWY PVT, CLSD TSNT.
AVOID HOSPITAL/HELIPAD 3,000 FT SOUTHEAST OF RY 36 THLD.
RY 18 DEPS CLIMB TO 1,800 FT MSL ON RY HEADING BFR TURNING EAST/SOUTHEAST.
FOR SVCS CTC AMGR AT 608-577-3754.
TKOFS & LDGS ARE PROHIBITED ON UNPAVED SFCS.

Instrument Procedures

NOTE: All procedures below are presented as PDF files. If you need a reader for these files, you should download the free Adobe Reader.

NOT FOR NAVIGATION. Please procure official charts for flight.
FAA instrument procedures published for use between 1 February 2018 at 0901Z and 1 March 2018 at 0900Z.

 
IAPs - Instrument Approach Procedures
RNAV (GPS) RWY 18   download (200KB)
RNAV (GPS) RWY 36   download (218KB)
NOTE: Special Take-Off Minimums/Departure Procedures apply   download (201KB)

Other nearby airports with instrument procedures:

KDLL - Baraboo-Wisconsin Dells Regional Airport (13 nm N)
C29 - Middleton Municipal Airport - Morey Field (15 nm SE)
C35 - Reedsburg Municipal Airport (17 nm NW)
KLNR - Tri-County Regional Airport (19 nm W)
C47 - Portage Municipal Airport (20 nm NE)
 
Loc | Ops | Rwys | IFR | FBO | Links
Com | Nav | Svcs | Stats | Notes

AirNav Hotels Sweepstakes
 
Area around 91C (Sauk-Prairie Airport)
 
Road maps at: MapQuest Bing Google
 
Aerial photo
WARNING: Photo may not be current or correct
Aerial photo of 91C (Sauk-Prairie Airport)
Do you have a better or more recent aerial photo of Sauk-Prairie Airport that you would like to share? If so, please send us your photo.

 
Sectional chart

 
Airport distance calculator
Flying to Sauk-Prairie Airport? Find the distance to fly.

From to 91C

Sunrise and sunset
Times for 21-Feb-2018
 Local
(UTC-6)
 Zulu
(UTC)
Morning civil twilight06:2012:20
Sunrise06:4912:49
Sunset17:3623:36
Evening civil twilight18:0500:05

Current date and time
Zulu (UTC)  21-Feb-2018 21:24:57
Local (UTC-6)  21-Feb-2018 15:24:57
 
METAR
KDLL 
13nm N 
212055Z AUTO 31004KT 10SM CLR M04/M15 A3060 RMK AO2 T10371147
KC29 
15nm SE 
212055Z AUTO 34006KT 10SM CLR M02/M10 A3061 RMK AO1 T10251097
KC35 
17nm NW 
212055Z AUTO 00000KT 10SM CLR M04/M13 A3061 RMK AO2 T10401131
KLNR 
19nm W 
212056Z AUTO 30003KT 10SM CLR M03/M12 A3062 RMK AO2 SLP376 T10281122 56002
KMSN 
20nm SE 
212053Z 33005KT 10SM OVC250 M04/M12 A3061 RMK AO2 SLP382 T10391117 50007 $
TAF
KMSN 
20nm SE 
211721Z 2118/2218 34009KT P6SM FEW020 BKN250 FM220000 36004KT P6SM BKN250 FM221400 06007KT P6SM BKN070
NOTAMs
Click for the latest NOTAMs
NOTAMs are issued by the DoD/FAA and will open in a separate window not controlled by AirNav.

 

 
 

FBO, Fuel Providers, and Aircraft Ground Support

  
 Business Name 
 
 Contact 
 
 Services / Description 
 
Fuel Prices
 
Comments
  
Blue Sky Flight LLC 608-215-9609
[email]
Aviation fuel

More info about Blue Sky Flight LLC
UL94
SS $3.55 
 Updated 07-Aug-2017
 
   2 read write
SS=Self service
Update Fuel Prices
 

Would you like to see your business listed on this page?

 If your business provides an interesting product or service to pilots, flight crews, aircraft, or users of the Sauk-Prairie Airport, you should consider listing it here.  To start the listing process, click on the button below
 
Add a business
 

Other Pages about Sauk-Prairie Airport

www.saukprairieairport.com
Page from the Wisconsin airport directory (PDF)
 
Update a link
 
Copyright © AirNav, LLC. All rights reserved. Privacy Policy  Contact